createdAt,value
2022-09-28T00:01:19.061Z,11.23
2022-09-28T00:03:47.602Z,10.52
2022-09-28T00:06:17.215Z,10.75
2022-09-28T00:08:43.514Z,11.52
2022-09-28T00:11:12.561Z,11.25
2022-09-28T00:13:39.275Z,11.88
2022-09-28T00:16:12.649Z,11.68
2022-09-28T00:18:38.985Z,9.45
2022-09-28T00:21:11.254Z,10.35
2022-09-28T00:23:37.870Z,9.77
2022-09-28T00:26:05.316Z,9.50
2022-09-28T00:28:32.097Z,9.90
2022-09-28T00:30:58.829Z,8.63
2022-09-28T00:33:25.116Z,7.70
2022-09-28T00:35:58.740Z,6.82
2022-09-28T00:38:29.359Z,6.20
2022-09-28T00:40:56.048Z,5.40
2022-09-28T00:43:23.707Z,5.80
2022-09-28T00:45:58.990Z,4.90
2022-09-28T00:48:29.168Z,4.90
2022-09-28T00:50:57.283Z,4.28
2022-09-28T00:53:31.442Z,3.70
2022-09-28T00:56:01.853Z,2.95
2022-09-28T00:58:31.614Z,3.47
2022-09-28T01:00:59.123Z,3.28
2022-09-28T01:03:27.031Z,2.90
2022-09-28T01:05:55.265Z,3.05
2022-09-28T01:08:22.878Z,2.90
2022-09-28T01:10:49.243Z,3.25
2022-09-28T01:13:17.285Z,3.45
2022-09-28T01:15:55.789Z,2.70
2022-09-28T01:18:43.390Z,3.50
2022-09-28T01:21:21.342Z,2.70
2022-09-28T01:24:09.452Z,2.60
2022-09-28T01:26:50.725Z,2.65
2022-09-28T01:29:19.279Z,2.67
2022-09-28T01:31:52.638Z,2.80
2022-09-28T01:34:27.197Z,2.70
2022-09-28T01:36:56.078Z,3.25
2022-09-28T01:39:43.087Z,3.35
2022-09-28T01:42:14.522Z,3.25
2022-09-28T01:44:45.239Z,3.13
2022-09-28T01:47:15.071Z,3.33
2022-09-28T01:49:50.558Z,3.17
2022-09-28T01:52:36.219Z,3.40
2022-09-28T01:55:26.286Z,3.40
2022-09-28T01:58:02.137Z,3.83
2022-09-28T02:00:28.932Z,4.15
2022-09-28T02:03:01.951Z,3.97
2022-09-28T02:05:38.000Z,4.00
2022-09-28T02:08:23.572Z,4.32
2022-09-28T02:10:58.058Z,4.18
2022-09-28T02:13:37.405Z,4.13
2022-09-28T02:16:25.830Z,4.10
2022-09-28T02:18:52.498Z,5.18
2022-09-28T02:21:36.040Z,4.88
2022-09-28T02:24:52.526Z,5.32
2022-09-28T02:29:50.851Z,6.35
2022-09-28T02:32:20.012Z,6.05
2022-09-28T02:34:46.375Z,6.47
2022-09-28T02:37:12.741Z,5.90
2022-09-28T02:39:39.034Z,5.95
2022-09-28T02:42:28.043Z,5.90
2022-09-28T02:45:06.451Z,5.90
2022-09-28T02:47:48.131Z,5.72
2022-09-28T02:50:36.595Z,5.95
2022-09-28T02:53:25.071Z,6.47
2022-09-28T02:56:03.265Z,5.72
2022-09-28T02:58:47.974Z,6.10
2022-09-28T03:01:17.318Z,5.55
2022-09-28T03:04:05.542Z,6.03
2022-09-28T03:06:47.036Z,5.60
2022-09-28T03:09:27.983Z,5.70
2022-09-28T03:12:01.220Z,6.03
2022-09-28T03:14:27.517Z,5.35
2022-09-28T03:16:53.844Z,6.05
2022-09-28T03:19:26.769Z,6.55
2022-09-28T03:21:53.511Z,6.05
2022-09-28T03:24:19.803Z,5.95
2022-09-28T03:26:46.094Z,6.60
2022-09-28T03:29:12.447Z,6.40
2022-09-28T03:31:38.840Z,6.38
2022-09-28T03:34:05.447Z,6.68
2022-09-28T03:36:31.758Z,7.00
2022-09-28T03:38:58.106Z,7.03
2022-09-28T03:41:24.921Z,7.75
2022-09-28T03:43:51.219Z,7.85
2022-09-28T03:46:17.594Z,7.40
2022-09-28T03:48:43.996Z,7.13
2022-09-28T03:51:10.799Z,7.80
2022-09-28T03:53:37.866Z,8.43
2022-09-28T03:56:11.086Z,8.55
2022-09-28T03:58:37.823Z,9.02
2022-09-28T04:01:14.208Z,9.25
2022-09-28T04:03:43.931Z,9.00
2022-09-28T04:06:10.918Z,9.23
2022-09-28T04:08:37.231Z,9.30
2022-09-28T04:11:03.566Z,9.63
2022-09-28T04:13:30.888Z,9.25
2022-09-28T04:15:59.463Z,10.35
2022-09-28T04:18:25.835Z,10.48
2022-09-28T04:21:03.257Z,11.25
2022-09-28T04:23:29.564Z,10.68
2022-09-28T04:25:55.903Z,10.80
2022-09-28T04:28:22.239Z,12.18
2022-09-28T04:30:48.528Z,11.52
2022-09-28T04:33:14.886Z,12.23
2022-09-28T04:35:41.237Z,10.82
2022-09-28T04:38:07.518Z,12.15
2022-09-28T04:40:33.954Z,12.65
2022-09-28T04:43:00.351Z,13.80
2022-09-28T04:45:26.719Z,13.98
2022-09-28T04:47:53.163Z,14.60
2022-09-28T04:50:19.497Z,14.07
2022-09-28T04:52:45.825Z,15.65
2022-09-28T04:55:12.904Z,15.23
2022-09-28T04:57:39.458Z,17.98
2022-09-28T05:00:07.894Z,18.30
2022-09-28T05:02:34.311Z,18.70
2022-09-28T05:05:00.634Z,20.25
2022-09-28T05:07:26.944Z,19.10
2022-09-28T05:09:53.391Z,21.85
2022-09-28T05:12:19.691Z,19.83
2022-09-28T05:14:45.976Z,21.30
2022-09-28T05:17:12.308Z,23.35
2022-09-28T05:19:38.602Z,21.33
2022-09-28T05:22:05.006Z,22.60
2022-09-28T05:24:31.550Z,21.42
2022-09-28T05:26:57.830Z,21.27
2022-09-28T05:29:24.135Z,23.60
2022-09-28T05:31:50.468Z,23.65
2022-09-28T05:34:16.804Z,25.08
2022-09-28T05:36:43.104Z,22.40
2022-09-28T05:39:09.450Z,24.17
2022-09-28T05:41:35.755Z,24.88
2022-09-28T05:44:02.030Z,23.92
2022-09-28T05:46:28.359Z,24.73
2022-09-28T05:48:54.743Z,24.65
2022-09-28T05:51:21.126Z,25.30
2022-09-28T05:53:47.499Z,23.42
2022-09-28T05:56:13.822Z,24.13
2022-09-28T05:58:40.113Z,25.67
2022-09-28T06:01:06.570Z,24.52
2022-09-28T06:03:32.943Z,23.30
2022-09-28T06:06:02.354Z,24.48
2022-09-28T06:08:30.592Z,23.55
2022-09-28T06:11:00.537Z,24.55
2022-09-28T06:13:27.744Z,24.30
2022-09-28T06:15:54.407Z,23.90
2022-09-28T06:18:20.780Z,23.35
2022-09-28T06:20:47.080Z,22.77
2022-09-28T06:23:13.727Z,22.88
2022-09-28T06:25:40.386Z,20.30
2022-09-28T06:28:13.343Z,21.10
2022-09-28T06:30:40.837Z,22.13
2022-09-28T06:33:09.778Z,21.48
2022-09-28T06:35:36.143Z,22.02
2022-09-28T06:38:02.947Z,20.83
2022-09-28T06:40:29.490Z,20.75
2022-09-28T06:42:59.944Z,20.80
2022-09-28T06:45:27.871Z,21.60
2022-09-28T06:47:59.130Z,22.10
2022-09-28T06:50:27.791Z,21.30
2022-09-28T06:52:55.411Z,19.35
2022-09-28T06:55:22.026Z,21.38
2022-09-28T06:57:59.900Z,20.33
2022-09-28T07:00:27.755Z,21.48
2022-09-28T07:02:54.206Z,21.50
2022-09-28T07:05:20.524Z,18.88
2022-09-28T07:07:46.819Z,21.23
2022-09-28T07:10:13.182Z,21.13
2022-09-28T07:12:39.488Z,24.70
2022-09-28T07:15:06.711Z,23.00
2022-09-28T07:17:34.446Z,24.08
2022-09-28T07:20:12.628Z,21.73
2022-09-28T07:22:43.900Z,21.35
2022-09-28T07:25:10.370Z,20.23
2022-09-28T07:27:36.695Z,20.58
2022-09-28T07:30:05.166Z,23.10
2022-09-28T07:35:03.089Z,21.77
2022-09-28T07:37:29.867Z,20.10
2022-09-28T07:40:07.669Z,19.67
2022-09-28T07:42:34.605Z,21.85
2022-09-28T07:48:07.556Z,22.30
2022-09-28T07:50:34.211Z,22.63
2022-09-28T07:53:00.704Z,22.27
2022-09-28T07:55:27.614Z,22.45
2022-09-28T07:57:55.497Z,21.55
2022-09-28T08:00:22.593Z,22.05
2022-09-28T08:02:54.864Z,21.90
2022-09-28T08:05:21.584Z,21.58
2022-09-28T08:07:47.861Z,22.23
2022-09-28T08:10:23.473Z,20.08
2022-09-28T08:12:59.312Z,21.13
2022-09-28T08:15:29.622Z,21.42
2022-09-28T08:17:58.002Z,22.05
2022-09-28T08:20:28.331Z,21.73
2022-09-28T08:22:54.887Z,19.23
2022-09-28T08:25:24.298Z,19.48
2022-09-28T08:27:50.980Z,19.85
2022-09-28T08:30:17.284Z,20.45
2022-09-28T08:32:47.484Z,19.58
2022-09-28T08:35:13.850Z,20.58
2022-09-28T08:37:40.156Z,17.88
2022-09-28T08:40:16.856Z,18.48
2022-09-28T08:42:44.220Z,19.88
2022-09-28T08:45:35.293Z,19.02
2022-09-28T08:48:19.289Z,18.73
2022-09-28T08:51:05.957Z,18.00
2022-09-28T08:53:53.528Z,16.98
2022-09-28T08:56:31.890Z,17.10
2022-09-28T08:59:02.719Z,17.23
2022-09-28T09:01:37.047Z,17.00
2022-09-28T09:04:06.075Z,16.65
2022-09-28T09:06:48.024Z,15.73
2022-09-28T09:10:02.240Z,15.10
2022-09-28T09:12:33.894Z,13.88
2022-09-28T09:15:19.141Z,12.27
2022-09-28T09:20:47.313Z,11.40
2022-09-28T09:23:33.738Z,13.98
2022-09-28T09:26:21.584Z,8.40
2022-09-28T09:28:56.803Z,6.90
2022-09-28T09:31:46.458Z,6.07
2022-09-28T09:34:34.129Z,5.57
2022-09-28T09:37:10.649Z,7.95
2022-09-28T09:39:57.487Z,10.23
2022-09-28T09:42:39.998Z,9.55
2022-09-28T09:45:52.196Z,9.45
2022-09-28T09:48:28.932Z,9.65
2022-09-28T09:51:13.470Z,8.43
2022-09-28T09:53:51.907Z,8.48
2022-09-28T09:56:26.121Z,8.75
2022-09-28T09:59:02.089Z,7.88
2022-09-28T10:01:35.905Z,8.02
2022-09-28T10:04:06.382Z,7.68
2022-09-28T10:06:37.609Z,6.93
2022-09-28T10:09:13.524Z,7.00
2022-09-28T10:11:43.939Z,6.80
2022-09-28T10:14:18.783Z,7.10
2022-09-28T10:19:13.081Z,7.28
2022-09-28T10:21:41.261Z,6.60
2022-09-28T10:24:17.666Z,5.63
2022-09-28T10:26:51.708Z,6.75
2022-09-28T10:29:22.985Z,7.38
2022-09-28T10:31:51.599Z,7.43
2022-09-28T10:34:26.182Z,8.30
2022-09-28T10:36:55.848Z,6.72
2022-09-28T10:39:37.425Z,7.18
2022-09-28T10:42:08.573Z,5.30
2022-09-28T10:44:48.521Z,4.85
2022-09-28T10:47:17.666Z,4.80
2022-09-28T10:49:47.342Z,5.38
2022-09-28T10:52:43.035Z,5.22
2022-09-28T10:55:30.774Z,6.28
2022-09-28T10:57:57.113Z,6.43
2022-09-28T11:00:34.102Z,6.70
2022-09-28T11:03:02.249Z,7.00
2022-09-28T11:05:29.186Z,5.88
2022-09-28T11:07:58.315Z,5.38
2022-09-28T11:10:27.327Z,5.47
2022-09-28T11:12:54.818Z,4.80
2022-09-28T11:15:25.857Z,3.95
2022-09-28T11:17:52.245Z,4.22
2022-09-28T11:20:27.397Z,4.32
2022-09-28T11:22:55.979Z,3.67
2022-09-28T11:25:30.182Z,4.03
2022-09-28T11:27:59.323Z,3.35
2022-09-28T11:30:25.641Z,2.60
2022-09-28T11:32:56.961Z,2.72
2022-09-28T11:35:29.296Z,2.83
2022-09-28T11:38:15.188Z,2.55
2022-09-28T11:40:55.050Z,2.63
2022-09-28T11:43:39.517Z,3.08
2022-09-28T11:46:19.543Z,3.90
2022-09-28T11:48:51.046Z,3.40
2022-09-28T11:51:30.290Z,4.00
2022-09-28T11:54:12.363Z,3.72
2022-09-28T11:56:43.708Z,3.40
2022-09-28T11:59:20.978Z,3.25
2022-09-28T12:01:53.217Z,3.17
2022-09-28T12:04:39.727Z,3.00
2022-09-28T12:07:25.514Z,2.95
2022-09-28T12:10:03.199Z,2.55
2022-09-28T12:12:40.091Z,2.67
2022-09-28T12:15:17.739Z,2.67
2022-09-28T12:17:50.338Z,2.78
2022-09-28T12:20:16.635Z,3.05
2022-09-28T12:22:49.433Z,2.90
2022-09-28T12:25:20.574Z,2.85
2022-09-28T12:27:55.924Z,2.72
2022-09-28T12:30:24.102Z,3.05
2022-09-28T12:33:00.343Z,3.65
2022-09-28T12:35:43.711Z,3.42
2022-09-28T12:38:30.807Z,2.63
2022-09-28T12:41:12.125Z,3.40
2022-09-28T12:43:58.605Z,3.42
2022-09-28T12:46:34.136Z,3.30
2022-09-28T12:50:13.764Z,3.50
2022-09-28T12:52:25.989Z,3.88
2022-09-28T12:55:06.613Z,4.28
2022-09-28T12:57:49.563Z,4.80
2022-09-28T13:00:19.694Z,5.03
2022-09-28T13:02:45.960Z,4.65
2022-09-28T13:05:34.067Z,4.72
2022-09-28T13:08:25.192Z,2.85
2022-09-28T13:11:08.465Z,2.10
2022-09-28T13:13:53.236Z,2.33
2022-09-28T13:16:34.129Z,2.30
2022-09-28T13:19:11.056Z,2.10
2022-09-28T13:21:46.954Z,1.80
2022-09-28T13:24:32.084Z,1.73
2022-09-28T13:27:05.650Z,1.85
2022-09-28T13:29:32.451Z,1.52
2022-09-28T13:32:01.216Z,1.65
2022-09-28T13:34:32.399Z,1.40
2022-09-28T13:37:13.889Z,1.77
2022-09-28T13:39:46.151Z,2.40
2022-09-28T13:42:24.410Z,2.67
2022-09-28T13:45:17.291Z,2.30
2022-09-28T13:47:56.227Z,2.20
2022-09-28T13:50:47.604Z,1.98
2022-09-28T13:54:15.833Z,1.80
2022-09-28T13:56:53.351Z,2.40
2022-09-28T13:59:26.203Z,1.50
2022-09-28T14:02:28.846Z,1.75
2022-09-28T14:05:25.546Z,1.65
2022-09-28T14:08:22.556Z,2.00
2022-09-28T14:10:54.428Z,1.70
2022-09-28T14:13:42.372Z,1.73
2022-09-28T14:16:17.882Z,1.77
2022-09-28T14:19:12.262Z,1.83
2022-09-28T14:22:15.906Z,2.05
2022-09-28T14:25:04.504Z,1.88
2022-09-28T14:27:59.754Z,2.28
2022-09-28T14:30:47.695Z,2.00
2022-09-28T14:33:20.090Z,2.42
2022-09-28T14:35:51.896Z,2.60
2022-09-28T14:38:22.128Z,2.25
2022-09-28T14:40:59.546Z,2.20
2022-09-28T14:43:44.162Z,2.50
2022-09-28T14:46:10.451Z,2.58
2022-09-28T14:48:59.777Z,2.47
2022-09-28T14:51:26.039Z,2.85
2022-09-28T14:54:00.587Z,3.97
2022-09-28T14:56:38.118Z,3.42
2022-09-28T14:59:06.428Z,4.40
2022-09-28T15:01:34.332Z,3.47
2022-09-28T15:04:04.683Z,3.58
2022-09-28T15:06:47.858Z,3.00
2022-09-28T15:09:33.494Z,3.20
2022-09-28T15:12:04.011Z,2.70
2022-09-28T15:14:34.087Z,2.80
2022-09-28T15:17:08.046Z,2.60
2022-09-28T15:19:53.300Z,3.13
2022-09-28T15:25:00.026Z,2.33
2022-09-28T15:27:36.909Z,2.35
2022-09-28T15:30:29.039Z,2.20
2022-09-28T15:32:57.333Z,2.83
2022-09-28T15:35:26.469Z,2.95
2022-09-28T15:37:54.760Z,2.65
2022-09-28T15:40:37.342Z,2.10
2022-09-28T15:43:20.741Z,2.70
2022-09-28T15:45:56.789Z,2.75
2022-09-28T15:49:01.427Z,3.00
2022-09-28T15:51:29.505Z,2.40
2022-09-28T15:54:01.340Z,2.75
2022-09-28T15:56:28.703Z,2.85
2022-09-28T15:59:13.227Z,3.00
2022-09-28T16:01:42.256Z,2.58
2022-09-28T16:04:37.989Z,2.83
2022-09-28T16:09:57.634Z,2.20
2022-09-28T16:12:27.717Z,2.30
2022-09-28T16:14:57.732Z,2.42
2022-09-28T16:17:35.075Z,2.28
2022-09-28T16:20:05.175Z,3.03
2022-09-28T16:22:32.289Z,2.63
2022-09-28T16:25:00.606Z,2.95
2022-09-28T16:27:39.584Z,2.97
2022-09-28T16:30:16.954Z,2.15
2022-09-28T16:33:27.408Z,2.35
2022-09-28T16:35:53.716Z,3.30
2022-09-28T16:38:20.549Z,2.72
2022-09-28T16:40:52.062Z,2.78
2022-09-28T16:43:27.428Z,3.30
2022-09-28T16:45:55.478Z,3.13
2022-09-28T16:48:27.116Z,2.63
2022-09-28T16:50:53.601Z,3.28
2022-09-28T16:53:20.030Z,2.95
2022-09-28T16:55:48.443Z,3.50
2022-09-28T16:58:15.029Z,3.13
2022-09-28T17:00:41.712Z,3.22
2022-09-28T17:03:14.082Z,3.55
2022-09-28T17:05:40.757Z,3.30
2022-09-28T17:08:10.998Z,4.10
2022-09-28T17:11:02.633Z,3.97
2022-09-28T17:13:31.283Z,3.60
2022-09-28T17:15:58.728Z,3.90
2022-09-28T17:18:25.601Z,4.43
2022-09-28T17:20:53.943Z,4.32
2022-09-28T17:23:20.973Z,4.28
2022-09-28T17:25:47.937Z,4.38
2022-09-28T17:28:26.843Z,4.65
2022-09-28T17:30:54.405Z,4.50
2022-09-28T17:33:21.006Z,5.97
2022-09-28T17:35:48.592Z,5.43
2022-09-28T17:38:15.869Z,4.80
2022-09-28T17:40:43.988Z,5.68
2022-09-28T17:43:11.099Z,5.43
2022-09-28T17:45:39.224Z,5.13
2022-09-28T17:48:07.141Z,5.80
2022-09-28T17:50:34.888Z,5.80
2022-09-28T17:53:01.397Z,6.07
2022-09-28T17:55:29.750Z,6.63
2022-09-28T17:57:56.387Z,6.63
2022-09-28T18:00:23.170Z,6.53
2022-09-28T18:02:51.041Z,7.47
2022-09-28T18:05:17.510Z,7.38
2022-09-28T18:07:47.888Z,7.53
2022-09-28T18:10:17.275Z,7.72
2022-09-28T18:12:43.723Z,8.02
2022-09-28T18:15:10.802Z,7.18
2022-09-28T18:17:38.992Z,7.30
2022-09-28T18:20:07.489Z,8.13
2022-09-28T18:22:34.434Z,8.48
2022-09-28T18:25:01.629Z,7.85
2022-09-28T18:27:32.053Z,8.48
2022-09-28T18:29:58.652Z,8.65
2022-09-28T18:32:25.164Z,8.98
2022-09-28T18:34:52.202Z,7.95
2022-09-28T18:37:18.686Z,8.70
2022-09-28T18:39:44.993Z,9.38
2022-09-28T18:42:14.730Z,9.52
2022-09-28T18:44:41.109Z,10.20
2022-09-28T18:47:07.540Z,10.25
2022-09-28T18:49:33.910Z,10.43
2022-09-28T18:52:00.442Z,10.10
2022-09-28T18:54:26.974Z,11.30
2022-09-28T18:56:56.385Z,11.63
2022-09-28T18:59:23.320Z,10.75
2022-09-28T19:01:50.015Z,10.90
2022-09-28T19:04:16.598Z,10.93
2022-09-28T19:06:43.056Z,10.90
2022-09-28T19:09:10.025Z,11.02
2022-09-28T19:11:36.629Z,10.73
2022-09-28T19:14:03.044Z,11.10
2022-09-28T19:16:31.090Z,11.40
2022-09-28T19:18:58.506Z,11.73
2022-09-28T19:21:25.700Z,12.00
2022-09-28T19:23:52.082Z,13.50
2022-09-28T19:26:21.542Z,13.25
2022-09-28T19:28:48.715Z,12.75
2022-09-28T19:31:15.684Z,13.80
2022-09-28T19:33:42.218Z,14.50
2022-09-28T19:36:14.575Z,14.60
2022-09-28T19:38:41.169Z,14.82
2022-09-28T19:41:12.564Z,14.27
2022-09-28T19:43:39.326Z,13.55
2022-09-28T19:46:11.809Z,14.35
2022-09-28T19:48:38.228Z,15.75
2022-09-28T19:51:06.484Z,14.85
2022-09-28T19:53:34.758Z,15.45
2022-09-28T19:56:01.229Z,16.42
2022-09-28T19:58:34.464Z,16.40
2022-09-28T20:01:05.153Z,16.60
2022-09-28T20:03:31.446Z,16.73
2022-09-28T20:05:59.441Z,18.27
2022-09-28T20:08:26.560Z,17.58
2022-09-28T20:10:54.346Z,16.13
2022-09-28T20:13:21.573Z,16.80
2022-09-28T20:15:47.942Z,17.33
2022-09-28T20:18:14.987Z,17.70
2022-09-28T20:20:41.631Z,17.27
2022-09-28T20:23:10.321Z,17.45
2022-09-28T20:25:36.697Z,16.63
2022-09-28T20:28:03.171Z,16.33
2022-09-28T20:30:29.480Z,17.75
2022-09-28T20:32:55.893Z,16.77
2022-09-28T20:35:32.305Z,17.95
2022-09-28T20:37:59.509Z,17.63
2022-09-28T20:40:25.886Z,16.95
2022-09-28T20:42:52.226Z,17.33
2022-09-28T20:45:18.535Z,17.08
2022-09-28T20:47:44.875Z,18.15
2022-09-28T20:50:11.175Z,17.20
2022-09-28T20:52:37.479Z,18.13
2022-09-28T20:55:03.984Z,17.77
2022-09-28T20:57:30.291Z,17.80
2022-09-28T20:59:56.625Z,17.98
2022-09-28T21:02:23.051Z,17.77
2022-09-28T21:04:49.435Z,19.58
2022-09-28T21:07:15.780Z,17.00
2022-09-28T21:09:42.155Z,18.30
2022-09-28T21:12:08.546Z,17.90
2022-09-28T21:14:34.950Z,18.30
2022-09-28T21:17:01.399Z,17.92
2022-09-28T21:19:27.751Z,17.92
2022-09-28T21:21:54.374Z,17.25
2022-09-28T21:24:20.848Z,17.02
2022-09-28T21:26:47.178Z,18.40
2022-09-28T21:29:15.145Z,19.23
2022-09-28T21:31:45.982Z,17.33
2022-09-28T21:34:17.245Z,17.98
2022-09-28T21:36:43.656Z,17.40
2022-09-28T21:39:10.613Z,17.92
2022-09-28T21:41:37.429Z,17.85
2022-09-28T21:44:03.814Z,17.75
2022-09-28T21:46:30.190Z,17.20
2022-09-28T21:48:56.523Z,17.30
2022-09-28T21:51:22.843Z,17.05
2022-09-28T21:53:49.171Z,17.52
2022-09-28T21:56:15.510Z,15.43
2022-09-28T21:58:41.824Z,17.13
2022-09-28T22:01:11.689Z,17.52
2022-09-28T22:03:38.052Z,16.90
2022-09-28T22:06:05.311Z,16.08
2022-09-28T22:08:32.295Z,17.15
2022-09-28T22:11:06.676Z,17.15
2022-09-28T22:13:40.647Z,17.75
2022-09-28T22:16:08.100Z,18.03
2022-09-28T22:18:34.543Z,17.27
2022-09-28T22:21:08.929Z,16.60
2022-09-28T22:23:36.424Z,17.42
2022-09-28T22:26:12.243Z,17.27
2022-09-28T22:28:44.131Z,16.20
2022-09-28T22:31:10.500Z,16.92
2022-09-28T22:33:36.827Z,18.38
2022-09-28T22:36:03.329Z,17.77
2022-09-28T22:38:31.866Z,17.20
2022-09-28T22:40:58.327Z,18.13
2022-09-28T22:43:26.221Z,17.35
2022-09-28T22:46:04.501Z,18.45
2022-09-28T22:48:31.903Z,18.48
2022-09-28T22:50:58.783Z,18.70
2022-09-28T22:53:25.147Z,19.73
2022-09-28T22:55:51.483Z,17.55
2022-09-28T22:58:17.947Z,18.85
2022-09-28T23:00:44.284Z,17.98
2022-09-28T23:03:10.707Z,18.95
2022-09-28T23:05:37.147Z,18.88
2022-09-28T23:08:04.013Z,18.83
2022-09-28T23:10:30.379Z,18.77
2022-09-28T23:12:56.786Z,17.92
2022-09-28T23:15:23.151Z,19.27
2022-09-28T23:17:53.121Z,19.90
2022-09-28T23:20:21.165Z,19.75
2022-09-28T23:22:48.486Z,20.88
2022-09-28T23:25:16.184Z,20.70
2022-09-28T23:27:50.096Z,20.90
2022-09-28T23:30:18.917Z,19.60
2022-09-28T23:32:45.709Z,20.25
2022-09-28T23:35:13.362Z,21.65
2022-09-28T23:37:39.943Z,22.23
2022-09-28T23:40:07.184Z,22.05
2022-09-28T23:42:33.615Z,21.30
2022-09-28T23:44:59.936Z,22.95
2022-09-28T23:47:26.324Z,21.73
2022-09-28T23:49:52.626Z,21.77
2022-09-28T23:52:18.989Z,22.98
2022-09-28T23:54:45.287Z,21.25
2022-09-28T23:57:11.602Z,20.77
2022-09-28T23:59:37.935Z,20.30
